YYW weather

Armstrong Airport
Armstrong, Ontario, Canada

Public forecast

Using degrees Celsius for public forecast. Weather courtesy of forecast.io.

METAR (pilot weather report)

Retrieved 2019/05/26 10:00 UTC (32 minutes ago):

CYYW 261000Z AUTO 33008KT 9SM BKN019 OVC036 05/01 A3003 RMK PCPN MISG SLP175

TAF (pilot weather forecast)

Closest forecast is Geraldton Greenstone Regional Airport, 82.0 nm (151.8 km) ESE. Retrieved 2019/05/26 08:39 UTC (2 hours ago):

TAF CYGQ 260738Z 2608/2620 VRB03KT P6SM SCT020 OVC060 TEMPO 2608/2610 5SM -DZ BR SCT007 BKN020 OVC030 PROB30 2608/2610 2SM BR OVC006 FM261000 34012KT 6SM -RA BR OVC020 TEMPO 2610/2615 3SM -RA -DZ BR OVC007 FM261500 34010KT P6SM SCT007 OVC020 TEMPO 2615/2618 OVC030 FM261800 35010KT P6SM SCT030 RMK NXT FCST BY 261400Z